createdAt,value
2023-01-23T00:01:27.898Z,0.50
2023-01-23T00:03:57.347Z,1.13
2023-01-23T00:06:26.972Z,0.50
2023-01-23T00:08:56.168Z,0.40
2023-01-23T00:11:27.222Z,0.67
2023-01-23T00:13:55.148Z,0.90
2023-01-23T00:16:24.995Z,0.90
2023-01-23T00:18:53.327Z,0.73
2023-01-23T00:21:23.276Z,0.47
2023-01-23T00:23:52.879Z,0.60
2023-01-23T00:26:23.192Z,0.70
2023-01-23T00:28:52.946Z,0.60
2023-01-23T00:31:23.047Z,0.50
2023-01-23T00:33:54.716Z,0.40
2023-01-23T00:36:24.118Z,1.00
2023-01-23T00:38:51.825Z,0.80
2023-01-23T00:41:19.592Z,1.07
2023-01-23T00:43:48.187Z,0.60
2023-01-23T00:46:17.247Z,0.40
2023-01-23T00:48:45.005Z,0.60
2023-01-23T00:51:13.924Z,1.30
2023-01-23T00:53:42.934Z,0.53
2023-01-23T00:56:10.714Z,0.67
2023-01-23T00:58:40.389Z,0.80
2023-01-23T01:01:08.578Z,0.70
2023-01-23T01:03:37.941Z,0.50
2023-01-23T01:06:06.070Z,0.43
2023-01-23T01:08:33.986Z,2.60
2023-01-23T01:11:02.255Z,0.90
2023-01-23T01:13:30.051Z,1.10
2023-01-23T01:15:58.041Z,1.07
2023-01-23T01:18:25.826Z,0.60
2023-01-23T01:20:56.151Z,0.60
2023-01-23T01:23:23.930Z,0.60
2023-01-23T01:25:51.649Z,1.20
2023-01-23T01:28:19.577Z,0.40
2023-01-23T01:30:48.859Z,0.50
2023-01-23T01:33:16.605Z,0.80
2023-01-23T01:35:44.410Z,0.40
2023-01-23T01:38:13.426Z,0.83
2023-01-23T01:40:41.129Z,0.60
2023-01-23T01:43:18.995Z,0.60
2023-01-23T01:46:17.280Z,0.83
2023-01-23T01:49:05.938Z,0.60
2023-01-23T01:51:36.932Z,0.53
2023-01-23T01:54:12.833Z,0.60
2023-01-23T01:56:45.446Z,0.90
2023-01-23T01:59:13.955Z,2.87
2023-01-23T02:01:43.702Z,0.40
2023-01-23T02:04:11.922Z,0.50
2023-01-23T02:06:39.921Z,0.73
2023-01-23T02:09:15.868Z,0.43
2023-01-23T02:11:44.084Z,0.50
2023-01-23T02:14:14.319Z,0.73
2023-01-23T02:16:50.325Z,0.73
2023-01-23T02:19:31.422Z,0.60
2023-01-23T02:22:04.530Z,0.73
2023-01-23T02:24:40.084Z,0.50
2023-01-23T02:27:09.197Z,0.50
2023-01-23T02:29:45.648Z,0.63
2023-01-23T02:32:13.446Z,0.50
2023-01-23T02:34:42.463Z,0.40
2023-01-23T02:37:10.512Z,0.50
2023-01-23T02:39:39.471Z,0.50
2023-01-23T02:42:11.014Z,0.60
2023-01-23T02:44:46.829Z,0.50
2023-01-23T02:47:16.947Z,0.80
2023-01-23T02:49:44.871Z,0.50
2023-01-23T02:52:12.620Z,0.50
2023-01-23T02:54:40.617Z,0.70
2023-01-23T02:57:09.734Z,0.50
2023-01-23T02:59:55.183Z,0.87
2023-01-23T03:02:24.329Z,0.40
2023-01-23T03:04:52.117Z,0.50
2023-01-23T03:07:21.193Z,1.00
2023-01-23T03:09:49.742Z,0.93
2023-01-23T03:12:18.806Z,0.70
2023-01-23T03:14:46.538Z,0.60
2023-01-23T03:17:14.764Z,0.67
2023-01-23T03:19:43.048Z,0.77
2023-01-23T03:22:10.961Z,0.40
2023-01-23T03:24:40.125Z,0.40
2023-01-23T03:27:08.342Z,0.40
2023-01-23T03:30:02.765Z,0.50
2023-01-23T03:32:31.109Z,0.87
2023-01-23T03:34:59.457Z,0.50
2023-01-23T03:37:27.304Z,0.60
2023-01-23T03:40:13.864Z,0.77
2023-01-23T03:42:41.692Z,0.67
2023-01-23T03:45:13.347Z,0.50
2023-01-23T03:47:42.524Z,0.43
2023-01-23T03:50:11.183Z,0.80
2023-01-23T03:52:40.423Z,0.40
2023-01-23T03:55:09.475Z,1.33
2023-01-23T03:57:38.309Z,0.50
2023-01-23T04:00:26.766Z,0.73
2023-01-23T04:03:00.457Z,0.40
2023-01-23T04:05:29.171Z,0.40
2023-01-23T04:07:56.896Z,0.50
2023-01-23T04:10:24.813Z,1.43
2023-01-23T04:12:55.921Z,0.60
2023-01-23T04:15:24.022Z,0.60
2023-01-23T04:17:55.719Z,0.57
2023-01-23T04:20:26.417Z,0.47
2023-01-23T04:22:55.435Z,0.40
2023-01-23T04:25:23.806Z,0.40
2023-01-23T04:27:51.521Z,0.60
2023-01-23T04:30:19.705Z,0.50
2023-01-23T04:32:48.254Z,3.03
2023-01-23T04:35:20.293Z,0.40
2023-01-23T04:37:48.527Z,0.60
2023-01-23T04:40:18.163Z,0.40
2023-01-23T04:42:56.513Z,0.60
2023-01-23T04:45:32.287Z,0.50
2023-01-23T04:48:32.552Z,0.60
2023-01-23T04:51:01.764Z,0.40
2023-01-23T04:53:29.735Z,0.40
2023-01-23T04:56:01.632Z,0.70
2023-01-23T04:58:30.037Z,0.57
2023-01-23T05:01:04.122Z,0.60
2023-01-23T05:03:34.987Z,0.50
2023-01-23T05:06:04.324Z,0.50
2023-01-23T05:08:32.039Z,0.50
2023-01-23T05:11:27.234Z,0.90
2023-01-23T05:13:55.419Z,0.40
2023-01-23T05:16:24.728Z,0.40
2023-01-23T05:19:12.562Z,0.50
2023-01-23T05:21:41.904Z,1.00
2023-01-23T05:24:14.565Z,0.60
2023-01-23T05:26:43.553Z,0.60
2023-01-23T05:29:11.422Z,0.40
2023-01-23T05:31:48.257Z,0.53
2023-01-23T05:34:36.426Z,0.50
2023-01-23T05:37:07.310Z,1.27
2023-01-23T05:39:37.745Z,0.93
2023-01-23T05:42:05.817Z,0.50
2023-01-23T05:44:52.068Z,0.70
2023-01-23T05:47:29.142Z,1.43
2023-01-23T05:49:58.239Z,0.47
2023-01-23T05:52:32.564Z,0.60
2023-01-23T05:55:00.680Z,0.47
2023-01-23T05:57:29.097Z,0.60
2023-01-23T06:00:18.456Z,0.40
2023-01-23T06:03:04.135Z,0.50
2023-01-23T06:05:46.775Z,0.60
2023-01-23T06:08:20.497Z,0.70
2023-01-23T06:10:48.483Z,0.87
2023-01-23T06:13:17.002Z,0.50
2023-01-23T06:15:44.719Z,1.50
2023-01-23T06:18:13.395Z,0.40
2023-01-23T06:20:41.120Z,0.77
2023-01-23T06:23:09.404Z,0.70
2023-01-23T06:25:39.438Z,0.40
2023-01-23T06:28:09.969Z,0.77
2023-01-23T06:30:38.545Z,0.87
2023-01-23T06:33:14.358Z,0.50
2023-01-23T06:35:43.086Z,0.60
2023-01-23T06:38:11.531Z,0.60
2023-01-23T06:40:41.004Z,2.93
2023-01-23T06:43:29.066Z,0.50
2023-01-23T06:45:57.085Z,1.13
2023-01-23T06:48:25.854Z,0.40
2023-01-23T06:50:53.836Z,0.40
2023-01-23T06:53:21.618Z,0.40
2023-01-23T06:55:53.099Z,2.27
2023-01-23T06:58:20.914Z,1.50
2023-01-23T07:00:49.696Z,0.97
2023-01-23T07:03:37.489Z,1.13
2023-01-23T07:06:07.014Z,0.73
2023-01-23T07:08:34.950Z,0.50
2023-01-23T07:11:05.063Z,0.73
2023-01-23T07:13:33.165Z,1.00
2023-01-23T07:16:01.174Z,0.70
2023-01-23T07:18:30.229Z,0.67
2023-01-23T07:20:58.062Z,0.50
2023-01-23T07:23:26.048Z,0.60
2023-01-23T07:26:00.279Z,0.77
2023-01-23T07:28:29.337Z,0.50
2023-01-23T07:30:59.087Z,0.50
2023-01-23T07:33:26.917Z,1.33
2023-01-23T07:35:54.739Z,0.50
2023-01-23T07:38:23.301Z,0.60
2023-01-23T07:40:51.056Z,0.40
2023-01-23T07:43:18.889Z,0.60
2023-01-23T07:45:48.062Z,1.00
2023-01-23T07:48:15.774Z,1.03
2023-01-23T07:50:43.657Z,0.70
2023-01-23T07:53:11.386Z,0.70
2023-01-23T07:55:39.949Z,0.60
2023-01-23T07:58:07.721Z,0.50
2023-01-23T08:00:35.523Z,0.80
2023-01-23T08:03:04.746Z,0.40
2023-01-23T08:05:32.462Z,1.50
2023-01-23T08:08:12.669Z,0.70
2023-01-23T08:10:41.460Z,0.50
2023-01-23T08:13:09.640Z,0.50
2023-01-23T08:15:38.502Z,0.43
2023-01-23T08:18:07.852Z,0.40
2023-01-23T08:20:35.621Z,1.07
2023-01-23T08:23:03.321Z,1.20
2023-01-23T08:25:31.499Z,1.33
2023-01-23T08:27:59.202Z,0.40
2023-01-23T08:30:26.961Z,1.20
2023-01-23T08:32:54.682Z,0.77
2023-01-23T08:35:23.775Z,1.13
2023-01-23T08:37:51.492Z,0.93
2023-01-23T08:40:19.856Z,0.53
2023-01-23T08:42:47.688Z,0.50
2023-01-23T08:45:15.493Z,0.73
2023-01-23T08:47:43.180Z,0.50
2023-01-23T08:50:12.678Z,0.87
2023-01-23T08:52:41.700Z,0.70
2023-01-23T08:55:12.646Z,0.40
2023-01-23T08:57:40.361Z,0.50
2023-01-23T09:00:10.836Z,0.40
2023-01-23T09:02:38.564Z,0.60
2023-01-23T09:05:07.159Z,0.50
2023-01-23T09:07:36.757Z,1.17
2023-01-23T09:10:06.899Z,0.60
2023-01-23T09:12:34.658Z,1.00
2023-01-23T09:15:02.402Z,0.57
2023-01-23T09:17:30.096Z,0.70
2023-01-23T09:20:00.346Z,1.07
2023-01-23T09:22:28.484Z,1.70
2023-01-23T09:24:56.239Z,0.50
2023-01-23T09:27:25.298Z,0.60
2023-01-23T09:29:53.598Z,0.40
2023-01-23T09:32:21.415Z,0.73
2023-01-23T09:34:49.476Z,1.03
2023-01-23T09:37:17.464Z,1.23
2023-01-23T09:39:45.363Z,0.77
2023-01-23T09:42:16.987Z,0.70
2023-01-23T09:44:49.525Z,0.60
2023-01-23T09:47:21.672Z,0.60
2023-01-23T09:49:58.391Z,0.60
2023-01-23T09:52:31.926Z,0.80
2023-01-23T09:55:05.001Z,0.60
2023-01-23T09:57:38.053Z,0.50
2023-01-23T10:00:14.725Z,1.27
2023-01-23T10:02:44.325Z,0.57
2023-01-23T10:05:15.663Z,0.60
2023-01-23T10:07:56.391Z,0.50
2023-01-23T10:10:48.240Z,0.50
2023-01-23T10:13:19.188Z,0.50
2023-01-23T10:16:04.034Z,0.63
2023-01-23T10:18:41.100Z,1.30
2023-01-23T10:21:17.997Z,0.80
2023-01-23T10:23:56.270Z,0.77
2023-01-23T10:26:30.291Z,0.53
2023-01-23T10:29:03.897Z,0.50
2023-01-23T10:31:39.321Z,1.23
2023-01-23T10:34:16.228Z,0.80
2023-01-23T10:36:55.130Z,0.50
2023-01-23T10:39:28.195Z,0.60
2023-01-23T10:42:01.963Z,1.73
2023-01-23T10:44:30.859Z,0.40
2023-01-23T10:47:04.368Z,1.83
2023-01-23T10:49:36.322Z,0.90
2023-01-23T10:52:04.870Z,0.73
2023-01-23T10:54:45.365Z,0.40
2023-01-23T10:57:23.838Z,0.50
2023-01-23T10:59:56.712Z,0.50
2023-01-23T11:02:30.262Z,0.40
2023-01-23T11:04:58.670Z,0.97
2023-01-23T11:07:28.568Z,0.60
2023-01-23T11:09:58.060Z,0.40
2023-01-23T11:12:28.019Z,0.60
2023-01-23T11:15:20.855Z,0.60
2023-01-23T11:17:50.626Z,0.67
2023-01-23T11:20:29.005Z,0.50
2023-01-23T11:23:05.771Z,0.73
2023-01-23T11:25:42.991Z,0.40
2023-01-23T11:28:23.577Z,0.50
2023-01-23T11:31:03.804Z,0.83
2023-01-23T11:33:44.221Z,0.60
2023-01-23T11:36:29.912Z,0.43
2023-01-23T11:39:02.608Z,0.97
2023-01-23T11:41:34.471Z,0.50
2023-01-23T11:44:08.032Z,0.87
2023-01-23T11:46:57.773Z,0.60
2023-01-23T11:49:45.895Z,0.50
2023-01-23T11:52:29.584Z,0.57
2023-01-23T11:55:18.386Z,0.50
2023-01-23T11:58:02.781Z,0.47
2023-01-23T12:00:37.822Z,5.90
2023-01-23T12:03:42.261Z,7.37
2023-01-23T12:06:39.554Z,14.70
2023-01-23T12:09:13.178Z,9.73
2023-01-23T12:11:56.352Z,6.13
2023-01-23T12:14:33.995Z,6.67
2023-01-23T12:17:17.017Z,3.30
2023-01-23T12:20:00.511Z,8.20
2023-01-23T12:22:36.551Z,6.50
2023-01-23T12:25:15.581Z,5.03
2023-01-23T12:27:45.357Z,6.03
2023-01-23T12:30:44.148Z,5.57
2023-01-23T12:33:25.661Z,5.07
2023-01-23T12:36:03.514Z,3.20
2023-01-23T12:38:34.262Z,4.43
2023-01-23T12:41:14.091Z,2.00
2023-01-23T12:43:48.757Z,3.77
2023-01-23T12:46:24.200Z,2.00
2023-01-23T12:48:57.071Z,1.97
2023-01-23T12:51:32.067Z,2.57
2023-01-23T12:54:03.515Z,4.77
2023-01-23T12:56:34.441Z,3.87
2023-01-23T12:59:08.923Z,1.20
2023-01-23T13:01:51.323Z,2.50
2023-01-23T13:04:36.738Z,2.10
2023-01-23T13:07:13.186Z,0.63
2023-01-23T13:09:51.064Z,1.40
2023-01-23T13:12:23.028Z,1.80
2023-01-23T13:15:10.655Z,1.73
2023-01-23T13:17:45.776Z,1.60
2023-01-23T13:20:40.109Z,0.90
2023-01-23T13:23:28.582Z,1.10
2023-01-23T13:26:28.933Z,0.57
2023-01-23T13:28:58.680Z,1.17
2023-01-23T13:31:34.607Z,1.03
2023-01-23T13:34:15.323Z,2.40
2023-01-23T13:36:44.989Z,0.80
2023-01-23T13:39:24.523Z,1.17
2023-01-23T13:42:14.426Z,1.13
2023-01-23T13:45:19.486Z,0.40
2023-01-23T14:20:23.706Z,1.17
2023-01-23T14:22:55.190Z,0.77
2023-01-23T14:25:23.485Z,1.47
2023-01-23T14:28:03.684Z,1.27
2023-01-23T14:30:31.616Z,0.70
2023-01-23T14:33:00.681Z,0.60
2023-01-23T14:35:30.418Z,1.20
2023-01-23T14:38:00.142Z,0.57
2023-01-23T14:40:33.427Z,0.70
2023-01-23T14:43:08.429Z,1.23
2023-01-23T14:45:38.030Z,3.60
2023-01-23T14:48:08.769Z,0.93
2023-01-23T14:50:36.981Z,1.13
2023-01-23T14:53:06.463Z,1.47
2023-01-23T14:55:38.320Z,0.90
2023-01-23T14:58:07.370Z,1.57
2023-01-23T15:00:36.585Z,0.57
2023-01-23T15:03:08.304Z,2.03
2023-01-23T15:05:39.322Z,0.90
2023-01-23T15:08:20.118Z,0.57
2023-01-23T15:10:49.860Z,1.23
2023-01-23T15:13:24.042Z,1.13
2023-01-23T15:15:56.220Z,3.10
2023-01-23T15:18:27.499Z,0.90
2023-01-23T15:20:56.615Z,0.60
2023-01-23T15:23:31.264Z,0.50
2023-01-23T15:26:23.731Z,0.70
2023-01-23T15:28:53.057Z,0.93
2023-01-23T15:31:31.405Z,0.70
2023-01-23T15:34:19.961Z,0.70
2023-01-23T15:36:50.399Z,0.70
2023-01-23T15:39:21.783Z,1.33
2023-01-23T15:41:51.373Z,0.50
2023-01-23T15:44:21.169Z,1.73
2023-01-23T15:46:49.147Z,0.47
2023-01-23T15:49:25.498Z,0.80
2023-01-23T15:51:56.314Z,1.10
2023-01-23T15:54:28.775Z,1.73
2023-01-23T15:57:07.110Z,0.90
2023-01-23T15:59:36.569Z,1.10
2023-01-23T16:02:04.434Z,0.40
2023-01-23T16:04:33.831Z,0.63
2023-01-23T16:07:06.100Z,0.80
2023-01-23T16:09:37.836Z,1.13
2023-01-23T16:12:06.190Z,1.07
2023-01-23T16:14:33.940Z,1.20
2023-01-23T16:17:15.323Z,2.43
2023-01-23T16:19:45.389Z,0.87
2023-01-23T16:22:15.870Z,1.07
2023-01-23T16:24:44.150Z,0.73
2023-01-23T16:27:18.612Z,0.90
2023-01-23T16:29:49.238Z,0.50
2023-01-23T16:32:17.436Z,0.90
2023-01-23T16:34:46.789Z,0.70
2023-01-23T16:37:16.820Z,1.00
2023-01-23T16:39:46.712Z,0.70
2023-01-23T16:42:20.899Z,1.40
2023-01-23T16:44:48.634Z,1.23
2023-01-23T16:47:16.350Z,1.27
2023-01-23T16:49:52.014Z,0.57
2023-01-23T16:52:24.953Z,0.67
2023-01-23T16:54:54.288Z,1.07
2023-01-23T16:57:22.387Z,1.37
2023-01-23T16:59:50.924Z,0.70
2023-01-23T17:02:22.303Z,0.53
2023-01-23T17:04:50.682Z,0.70
2023-01-23T17:07:19.836Z,0.90
2023-01-23T17:09:49.852Z,1.03
2023-01-23T17:12:21.459Z,0.70
2023-01-23T17:14:52.310Z,0.80
2023-01-23T17:17:28.790Z,0.90
2023-01-23T17:19:57.473Z,1.83
2023-01-23T17:22:30.288Z,1.17
2023-01-23T17:24:59.427Z,0.60
2023-01-23T17:27:27.145Z,1.00
2023-01-23T17:29:54.878Z,1.73
2023-01-23T17:32:29.282Z,1.03
2023-01-23T17:34:58.057Z,0.50
2023-01-23T17:37:25.858Z,0.67
2023-01-23T17:39:53.577Z,0.70
2023-01-23T17:42:22.766Z,2.00
2023-01-23T17:44:50.466Z,0.73
2023-01-23T17:47:18.611Z,1.17
2023-01-23T17:49:51.029Z,1.60
2023-01-23T17:52:20.271Z,0.50
2023-01-23T17:54:48.200Z,0.93
2023-01-23T17:57:15.981Z,1.37
2023-01-23T17:59:45.170Z,0.67
2023-01-23T18:02:26.309Z,1.10
2023-01-23T18:04:54.046Z,2.23
2023-01-23T18:07:21.881Z,0.50
2023-01-23T18:09:49.637Z,0.63
2023-01-23T18:12:25.060Z,0.80
2023-01-23T18:15:00.823Z,1.23
2023-01-23T18:17:35.585Z,0.60
2023-01-23T18:20:04.870Z,1.60
2023-01-23T18:22:33.092Z,0.63
2023-01-23T18:25:01.287Z,1.20
2023-01-23T18:27:38.639Z,0.50
2023-01-23T18:30:21.390Z,1.13
2023-01-23T18:33:15.440Z,0.50
2023-01-23T18:36:01.598Z,1.00
2023-01-23T18:38:37.374Z,0.80
2023-01-23T18:41:16.939Z,0.60
2023-01-23T18:43:48.533Z,0.87
2023-01-23T18:46:20.188Z,1.10
2023-01-23T18:48:49.540Z,1.10
2023-01-23T18:51:38.353Z,0.47
2023-01-23T18:54:15.879Z,0.60
2023-01-23T18:56:51.145Z,4.13
2023-01-23T18:59:25.047Z,1.37
2023-01-23T19:01:55.555Z,0.80
2023-01-23T19:04:34.311Z,0.80
2023-01-23T19:07:02.564Z,0.60
2023-01-23T19:09:34.937Z,0.73
2023-01-23T19:12:24.093Z,0.60
2023-01-23T19:15:12.157Z,0.90
2023-01-23T19:17:48.754Z,0.90
2023-01-23T19:20:23.666Z,0.97
2023-01-23T19:23:01.682Z,1.00
2023-01-23T19:25:30.181Z,1.40
2023-01-23T19:27:58.863Z,0.73
2023-01-23T19:30:27.164Z,0.60
2023-01-23T19:32:56.320Z,0.50
2023-01-23T19:35:24.044Z,1.80
2023-01-23T19:37:51.770Z,1.03
2023-01-23T19:40:19.939Z,1.03
2023-01-23T19:42:58.762Z,1.37
2023-01-23T19:45:35.583Z,1.10
2023-01-23T19:48:05.401Z,0.67
2023-01-23T19:50:33.101Z,2.33
2023-01-23T19:53:00.963Z,1.13
2023-01-23T19:55:30.401Z,0.87
2023-01-23T19:57:58.510Z,0.70
2023-01-23T20:00:29.165Z,1.40
2023-01-23T20:02:57.344Z,0.80
2023-01-23T20:05:27.007Z,0.60
2023-01-23T20:07:55.053Z,1.07
2023-01-23T20:10:22.950Z,1.47
2023-01-23T20:12:52.571Z,0.60
2023-01-23T20:15:22.264Z,1.33
2023-01-23T20:17:50.760Z,1.07
2023-01-23T20:20:19.360Z,0.60
2023-01-23T20:22:48.576Z,1.00
2023-01-23T20:25:17.966Z,0.80
2023-01-23T20:27:46.030Z,0.50
2023-01-23T20:30:18.114Z,1.27
2023-01-23T20:32:45.872Z,0.43
2023-01-23T20:35:13.583Z,0.80
2023-01-23T20:37:41.308Z,1.50
2023-01-23T20:40:12.283Z,0.80
2023-01-23T20:42:40.785Z,1.90
2023-01-23T20:45:09.599Z,0.67
2023-01-23T20:47:37.848Z,0.77
2023-01-23T20:50:06.344Z,0.77
2023-01-23T20:52:51.786Z,0.87
2023-01-23T20:55:21.221Z,0.70
2023-01-23T20:58:06.587Z,0.70
2023-01-23T21:00:34.531Z,1.50
2023-01-23T21:03:02.348Z,2.03
2023-01-23T21:05:30.076Z,0.50
2023-01-23T21:07:57.774Z,0.90
2023-01-23T21:10:26.847Z,1.10
2023-01-23T21:12:54.679Z,1.53
2023-01-23T21:15:22.880Z,1.00
2023-01-23T21:17:50.806Z,0.90
2023-01-23T21:20:18.819Z,2.37
2023-01-23T21:22:46.515Z,0.57
2023-01-23T21:25:14.278Z,1.27
2023-01-23T21:27:43.297Z,0.40
2023-01-23T21:30:12.164Z,0.73
2023-01-23T21:32:39.872Z,1.77
2023-01-23T21:35:07.997Z,0.57
2023-01-23T21:37:35.956Z,1.23
2023-01-23T21:40:03.805Z,0.70
2023-01-23T21:42:31.535Z,1.43
2023-01-23T21:45:00.623Z,1.23
2023-01-23T21:47:28.297Z,0.70
2023-01-23T21:49:56.023Z,0.60
2023-01-23T21:52:23.788Z,0.60
2023-01-23T21:54:51.637Z,1.03
2023-01-23T21:57:19.352Z,0.53
2023-01-23T22:00:07.056Z,0.50
2023-01-23T22:02:40.936Z,1.37
2023-01-23T22:05:09.289Z,0.73
2023-01-23T22:07:37.466Z,0.50
2023-01-23T22:10:06.024Z,0.90
2023-01-23T22:12:33.962Z,1.60
2023-01-23T22:15:01.677Z,1.87
2023-01-23T22:17:29.380Z,0.90
2023-01-23T22:19:58.399Z,1.10
2023-01-23T22:22:26.117Z,1.07
2023-01-23T22:24:53.936Z,0.40
2023-01-23T22:27:23.313Z,1.07
2023-01-23T22:29:51.052Z,1.50
2023-01-23T22:32:19.255Z,0.70
2023-01-23T22:34:47.117Z,0.80
2023-01-23T22:37:16.288Z,0.50
2023-01-23T22:39:44.255Z,1.20
2023-01-23T22:42:12.146Z,0.73
2023-01-23T22:44:40.141Z,1.10
2023-01-23T22:47:08.674Z,0.97
2023-01-23T22:49:36.457Z,0.60
2023-01-23T22:52:04.246Z,0.90
2023-01-23T22:54:33.252Z,0.60
2023-01-23T22:57:01.231Z,0.50
2023-01-23T22:59:29.173Z,1.17
2023-01-23T23:01:56.921Z,1.03
2023-01-23T23:04:24.632Z,1.13
2023-01-23T23:06:52.328Z,1.00
2023-01-23T23:09:20.032Z,1.10
2023-01-23T23:11:51.581Z,0.67
2023-01-23T23:14:19.639Z,0.80
2023-01-23T23:16:47.366Z,0.83
2023-01-23T23:19:15.103Z,0.70
2023-01-23T23:21:42.835Z,0.53
2023-01-23T23:24:14.555Z,1.60
2023-01-23T23:26:42.291Z,1.20
2023-01-23T23:29:11.340Z,0.70
2023-01-23T23:31:39.194Z,0.50
2023-01-23T23:34:07.049Z,1.50
2023-01-23T23:36:34.861Z,1.07
2023-01-23T23:39:02.648Z,0.73
2023-01-23T23:41:30.524Z,1.00
2023-01-23T23:43:58.217Z,0.70
2023-01-23T23:46:27.755Z,1.33
2023-01-23T23:48:55.657Z,1.47
2023-01-23T23:51:26.351Z,1.40
2023-01-23T23:53:55.448Z,0.80
2023-01-23T23:56:24.888Z,0.83
2023-01-23T23:58:52.831Z,0.77
